Time;durP1;ratioP1;P1;durP2;ratioP2;P2;SDS_P1;SDS_P2;PMS_P1;PMS_P2;Temp;Humidity;BMP_temperature;BMP_pressure;BME280_temperature;BME280_humidity;BME280_pressure;Samples;Min_cycle;Max_cycle;Signal;HPM_P1;HPM_P2
2022/11/26 08:01:36;;;;;;;;;48.75;41.75;;;;;7.62;100.00;102742.34;5850987;23;50165;-74
2022/11/26 08:04:04;;;;;;;;;58.75;49.00;;;;;8.09;100.00;102817.72;5040671;28;50148;-74
2022/11/26 08:06:29;;;;;;;;;55.50;46.75;;;;;7.76;100.00;102761.56;5033698;28;50051;-74
2022/11/26 08:08:57;;;;;;;;;54.50;46.50;;;;;7.28;100.00;102717.50;5030651;28;49755;-74
2022/11/26 08:11:27;;;;;;;;;62.50;51.00;;;;;8.10;100.00;102839.53;5032077;28;49847;-74
2022/11/26 08:13:55;;;;;;;;;59.50;47.00;;;;;8.17;100.00;102841.75;5030585;28;51511;-75
2022/11/26 08:16:21;;;;;;;;;59.25;47.75;;;;;8.22;100.00;102829.88;5030902;28;49702;-74
2022/11/26 08:18:46;;;;;;;;;59.50;47.00;;;;;8.00;100.00;102789.25;5006436;28;50909;-74
2022/11/26 08:21:12;;;;;;;;;59.00;46.75;;;;;8.42;100.00;102855.63;5029228;28;50127;-74
2022/11/26 08:23:38;;;;;;;;;55.00;45.00;;;;;8.16;100.00;102801.59;5030591;28;50079;-74
2022/11/26 08:26:06;;;;;;;;;56.50;47.25;;;;;8.30;100.00;102810.34;5029481;28;50374;-74
2022/11/26 08:28:31;;;;;;;;;56.50;44.75;;;;;8.59;100.00;102856.69;5024829;28;51250;-74
2022/11/26 08:31:02;;;;;;;;;49.00;42.25;;;;;8.59;100.00;102854.06;5012973;28;50032;-74
2022/11/26 08:33:27;;;;;;;;;57.25;46.25;;;;;8.59;100.00;102836.66;5028125;28;50738;-74
2022/11/26 08:35:54;;;;;;;;;53.75;46.00;;;;;8.10;100.00;102732.28;5031346;28;50047;-74
2022/11/26 08:38:19;;;;;;;;;50.25;42.50;;;;;8.79;100.00;102837.88;5032480;28;49966;-74
2022/11/26 08:40:45;;;;;;;;;58.50;46.00;;;;;8.23;100.00;102722.69;5031936;28;50058;-74
2022/11/26 08:43:10;;;;;;;;;55.00;46.00;;;;;8.84;100.00;102815.47;5031430;28;49857;-75
2022/11/26 08:45:35;;;;;;;;;52.50;44.25;;;;;8.88;100.00;102820.09;5032203;28;50018;-74
2022/11/26 08:48:01;;;;;;;;;54.75;45.75;;;;;7.55;100.00;102585.97;5032959;28;49995;-74
2022/11/26 08:50:26;;;;;;;;;54.75;45.75;;;;;8.19;100.00;102706.69;5031140;28;49924;-74
2022/11/26 08:52:52;;;;;;;;;50.75;40.50;;;;;8.24;100.00;102711.41;5013186;28;50952;-74
2022/11/26 08:55:17;;;;;;;;;61.50;46.00;;;;;8.67;100.00;102799.53;5012979;28;49876;-74
2022/11/26 08:57:42;;;;;;;;;55.25;45.25;;;;;8.94;100.00;102808.16;5031610;28;49914;-72
2022/11/26 09:00:08;;;;;;;;;51.75;42.00;;;;;8.02;100.00;102663.84;5030754;28;49883;-71
2022/11/26 09:02:33;;;;;;;;;41.50;36.75;;;;;7.88;100.00;102636.81;5002766;28;50266;-74
2022/11/26 09:04:59;;;;;;;;;36.25;31.50;;;;;8.79;100.00;102790.72;5010985;28;50111;-74
2022/11/26 09:07:24;;;;;;;;;34.75;30.00;;;;;8.60;100.00;102725.88;5011904;28;49731;-77
2022/11/26 09:09:49;;;;;;;;;29.00;26.50;;;;;9.44;100.00;102843.50;5010465;28;49963;-73
2022/11/26 09:12:15;;;;;;;;;35.50;30.50;;;;;9.42;100.00;102826.78;5012365;28;50368;-73
2022/11/26 09:14:41;;;;;;;;;31.25;24.25;;;;;9.52;100.00;102840.41;5011511;28;49715;-75
2022/11/26 09:17:08;;;;;;;;;29.50;24.00;;;;;9.28;100.00;102813.69;5012978;28;49986;-77
2022/11/26 09:19:34;;;;;;;;;17.75;16.00;;;;;8.35;100.00;102630.97;5012437;28;49770;-75
2022/11/26 09:22:00;;;;;;;;;19.50;18.00;;;;;9.17;100.00;102758.03;5012030;28;51156;-71
2022/11/26 09:24:25;;;;;;;;;22.00;18.50;;;;;9.59;100.00;102835.63;5012285;28;49713;-73
2022/11/26 09:26:51;;;;;;;;;18.50;18.00;;;;;9.56;100.00;102845.03;5012058;28;49829;-73
2022/11/26 09:29:21;;;;;;;;;13.25;12.00;;;;;9.65;100.00;102838.63;5011929;28;49674;-73
2022/11/26 09:31:48;;;;;;;;;23.00;19.25;;;;;9.56;100.00;102810.97;5011012;28;51700;-74
2022/11/26 09:34:14;;;;;;;;;23.50;21.00;;;;;9.65;100.00;102830.75;5011804;28;49639;-72
2022/11/26 09:36:39;;;;;;;;;15.50;14.50;;;;;9.79;100.00;102841.09;5012327;28;49862;-77
2022/11/26 09:39:05;;;;;;;;;19.25;18.50;;;;;8.78;100.00;102655.38;5012205;28;49750;-74
2022/11/26 09:41:39;;;;;;;;;19.00;16.50;;;;;9.91;100.00;102833.91;5012212;28;49709;-81
2022/11/26 09:44:14;;;;;;;;;20.25;19.75;;;;;9.96;100.00;102824.59;5012535;28;49780;-67
2022/11/26 09:47:07;;;;;;;;;20.25;17.25;;;;;9.97;100.00;102826.41;5012207;28;49876;-70
2022/11/26 09:50:06;;;;;;;;;13.50;12.50;;;;;10.03;100.00;102829.34;5012590;28;49600;-69
2022/11/26 09:52:40;;;;;;;;;19.25;16.25;;;;;10.08;100.00;102812.16;5006722;28;50942;-72
2022/11/26 09:55:08;;;;;;;;;15.00;14.75;;;;;10.12;100.00;102821.09;5012115;28;49864;-71
2022/11/26 09:57:49;;;;;;;;;21.25;20.75;;;;;10.11;100.00;102809.69;4994065;28;49933;-71
2022/11/26 10:00:35;;;;;;;;;20.50;16.75;;;;;10.07;100.00;102812.97;4994127;28;50172;-73
2022/11/26 10:03:09;;;;;;;;;18.00;17.00;;;;;10.02;100.00;102806.56;5025916;28;49845;-83
2022/11/26 10:05:51;;;;;;;;;16.75;15.50;;;;;9.75;100.00;102753.50;5014478;28;49811;-71
2022/11/26 10:08:35;;;;;;;;;13.75;11.25;;;;;10.16;100.00;102816.13;5032196;28;49865;-72
2022/11/26 10:11:12;;;;;;;;;18.25;18.25;;;;;10.18;100.00;102809.22;5031879;28;49584;-72
2022/11/26 10:13:56;;;;;;;;;18.75;17.50;;;;;9.50;100.00;102692.63;5031550;28;51078;-69
2022/11/26 10:16:30;;;;;;;;;18.50;17.75;;;;;9.71;100.00;102723.53;5031331;28;49701;-69
2022/11/26 10:19:06;;;;;;;;;24.75;19.75;;;;;10.24;100.00;102804.34;5031558;28;49740;-69
2022/11/26 10:21:43;;;;;;;;;18.75;17.75;;;;;10.26;100.00;102792.22;5031043;28;49696;-71
2022/11/26 10:24:19;;;;;;;;;15.25;15.25;;;;;10.41;100.00;102820.09;5031377;28;49802;-70
2022/11/26 10:26:47;;;;;;;;;20.75;19.25;;;;;10.43;100.00;102819.38;5031522;28;49752;-73
2022/11/26 10:29:24;;;;;;;;;19.75;17.75;;;;;10.51;100.00;102806.66;5027714;28;49528;-72
2022/11/26 10:31:56;;;;;;;;;19.00;18.00;;;;;10.48;100.00;102795.97;5030172;28;50498;-73
2022/11/26 10:34:37;;;;;;;;;20.25;17.75;;;;;10.57;100.00;102799.09;5030616;28;51017;-73
2022/11/26 10:37:03;;;;;;;;;20.75;17.50;;;;;10.38;100.00;102754.31;5037167;28;49830;-70
2022/11/26 10:39:28;;;;;;;;;22.00;19.00;;;;;10.64;100.00;102788.09;5031324;28;50105;-71
2022/11/26 10:41:53;;;;;;;;;24.75;22.25;;;;;9.96;100.00;102654.06;5031362;28;49868;-71
2022/11/26 10:44:31;;;;;;;;;26.50;24.00;;;;;10.68;100.00;102790.06;5031031;28;49682;-71
2022/11/26 10:46:57;;;;;;;;;21.00;20.75;;;;;10.64;100.00;102784.59;5030963;28;49626;-71
2022/11/26 10:49:25;;;;;;;;;21.00;20.00;;;;;10.63;100.00;102790.66;5030674;28;49824;-71
2022/11/26 10:52:00;;;;;;;;;26.50;24.50;;;;;10.62;100.00;102810.78;5030880;28;49791;-71
2022/11/26 10:54:37;;;;;;;;;28.75;25.00;;;;;9.83;100.00;102672.56;5030647;28;50579;-71
2022/11/26 10:57:08;;;;;;;;;25.50;23.00;;;;;10.70;100.00;102803.28;5031133;28;49812;-71
2022/11/26 10:59:42;;;;;;;;;32.75;24.25;;;;;10.39;100.00;102748.22;5030917;28;49865;-71
2022/11/26 11:02:33;;;;;;;;;22.00;20.00;;;;;10.68;100.00;102800.56;5031053;28;49834;-73
2022/11/26 11:05:03;;;;;;;;;27.00;21.75;;;;;10.66;100.00;102810.09;5030388;28;49965;-72
2022/11/26 11:07:31;;;;;;;;;27.50;24.50;;;;;10.65;100.00;102802.16;5030986;28;49818;-71
2022/11/26 11:10:12;;;;;;;;;34.00;28.00;;;;;10.27;100.00;102733.63;5030576;28;49797;-71
2022/11/26 11:12:46;;;;;;;;;25.50;23.00;;;;;9.67;100.00;102644.63;5030859;28;49722;-71
2022/11/26 11:15:23;;;;;;;;;23.50;22.50;;;;;9.70;100.00;102636.91;5030394;28;49746;-71
2022/11/26 11:18:05;;;;;;;;;33.75;29.25;;;;;10.78;100.00;102792.34;5012727;28;49986;-72
2022/11/26 11:20:32;;;;;;;;;23.75;23.00;;;;;10.19;100.00;102677.16;5030374;28;49826;-72
2022/11/26 11:23:02;;;;;;;;;30.00;22.50;;;;;10.71;100.00;102768.28;5030312;28;49620;-69
2022/11/26 11:25:31;;;;;;;;;25.25;21.50;;;;;10.89;100.00;102783.28;5024986;28;49928;-70
2022/11/26 11:28:14;;;;;;;;;25.25;21.75;;;;;10.81;100.00;102744.34;5030217;28;49971;-72
2022/11/26 11:30:41;;;;;;;;;33.25;24.25;;;;;10.42;100.00;102690.63;5030249;28;49864;-71
2022/11/26 11:33:22;;;;;;;;;24.00;20.50;;;;;11.02;100.00;102765.53;5029637;28;49976;-71
2022/11/26 11:36:00;;;;;;;;;23.00;20.50;;;;;10.56;100.00;102671.25;5031013;28;50351;-71
2022/11/26 11:38:28;;;;;;;;;27.00;25.00;;;;;10.87;100.00;102742.91;5024119;28;50238;-72
2022/11/26 11:40:54;;;;;;;;;29.00;27.25;;;;;10.28;100.00;102614.69;5029030;28;49779;-71
2022/11/26 11:43:22;;;;;;;;;35.00;29.00;;;;;10.36;100.00;102666.69;5029959;28;49671;-73
2022/11/26 11:45:50;;;;;;;;;31.75;27.25;;;;;11.14;100.00;102774.94;5029306;28;50679;-75
2022/11/26 11:48:24;;;;;;;;;36.75;29.25;;;;;11.20;100.00;102797.13;5029920;28;49746;-73
2022/11/26 11:51:15;;;;;;;;;31.50;29.50;;;;;11.11;100.00;102795.81;5030074;28;49982;-74
2022/11/26 11:54:02;;;;;;;;;31.00;28.75;;;;;11.15;100.00;102800.41;5012196;28;50040;-72
2022/11/26 11:56:35;;;;;;;;;24.25;22.75;;;;;10.85;100.00;102739.31;5029359;28;51106;-73
2022/11/26 11:59:19;;;;;;;;;35.50;34.50;;;;;11.25;100.00;102791.25;5023979;28;49678;-72
2022/11/26 12:02:17;;;;;;;;;27.75;27.00;;;;;11.29;100.00;102795.84;5026912;28;49742;-72
2022/11/26 12:04:59;;;;;;;;;37.75;32.50;;;;;10.80;100.00;102709.25;5030001;28;49709;-73
2022/11/26 12:07:30;;;;;;;;;33.25;32.25;;;;;11.38;100.00;102800.66;5029819;28;49837;-72
2022/11/26 12:10:19;;;;;;;;;28.00;25.25;;;;;11.42;100.00;102800.00;5029781;28;49888;-74
2022/11/26 12:12:49;;;;;;;;;30.75;28.00;;;;;11.42;100.00;102793.00;5029692;28;49860;-72
2022/11/26 12:15:34;;;;;;;;;37.00;29.75;;;;;11.44;100.00;102785.19;5029704;28;49777;-72
2022/11/26 12:18:39;;;;;;;;;33.00;31.00;;;;;11.50;100.00;102780.25;5029630;28;49943;-72
2022/11/26 12:21:10;;;;;;;;;35.50;31.00;;;;;11.50;100.00;102756.56;5029345;28;50095;-74
2022/11/26 12:23:57;;;;;;;;;33.75;29.25;;;;;11.61;100.00;102773.75;5029640;28;49832;-73
2022/11/26 12:26:33;;;;;;;;;32.00;29.25;;;;;11.69;100.00;102771.50;5029944;28;49652;-73
2022/11/26 12:29:22;;;;;;;;;34.75;31.25;;;;;10.89;100.00;102623.00;5029676;28;50492;-72
2022/11/26 12:31:53;;;;;;;;;41.00;31.00;;;;;11.44;100.00;102712.44;5025667;28;49975;-75
2022/11/26 12:34:34;;;;;;;;;35.50;28.75;;;;;10.58;100.00;102564.53;5028183;28;49974;-72
2022/11/26 12:37:11;;;;;;;;;41.50;32.00;;;;;11.85;100.00;102766.16;5023393;28;49805;-75
2022/11/26 12:39:49;;;;;;;;;32.75;29.75;;;;;11.91;100.00;102762.94;5028923;28;50425;-72
2022/11/26 12:42:40;;;;;;;;;33.00;29.75;;;;;11.91;100.00;102761.19;5029364;28;49917;-70
2022/11/26 12:45:27;;;;;;;;;33.25;29.75;;;;;11.97;100.00;102761.50;5032416;28;49955;-68
2022/11/26 12:47:58;;;;;;;;;29.00;23.75;;;;;11.91;100.00;102755.94;5028171;28;49738;-65
2022/11/26 12:50:45;;;;;;;;;28.00;26.50;;;;;12.04;100.00;102753.03;5014783;28;53019;-68
2022/11/26 12:53:32;;;;;;;;;25.25;24.00;;;;;12.04;100.00;102758.31;5032797;28;49812;-72
2022/11/26 12:56:13;;;;;;;;;28.00;24.75;;;;;12.16;100.00;102749.16;5017463;28;49879;-71
2022/11/26 12:59:07;;;;;;;;;35.75;29.50;;;;;12.27;100.00;102753.22;5032665;28;49821;-70
2022/11/26 13:01:32;;;;;;;;;31.00;27.50;;;;;12.33;100.00;102743.84;5031452;28;50361;-68
2022/11/26 13:04:00;;;;;;;;;33.75;27.75;;;;;12.30;100.00;102746.34;5032312;28;49758;-67
2022/11/26 13:06:29;;;;;;;;;33.50;29.00;;;;;12.35;100.00;102754.44;5032554;28;49760;-67
2022/11/26 13:09:00;;;;;;;;;31.00;24.25;;;;;12.37;100.00;102754.53;5032874;28;50268;-67
2022/11/26 13:11:34;;;;;;;;;30.25;26.50;;;;;12.37;100.00;102744.00;5032907;28;52248;-65
2022/11/26 13:14:12;;;;;;;;;24.00;23.25;;;;;12.40;100.00;102739.75;5032576;28;49810;-64
2022/11/26 13:16:40;;;;;;;;;19.75;19.75;;;;;12.36;100.00;102729.03;5031700;28;50009;-66
2022/11/26 13:19:17;;;;;;;;;27.75;25.00;;;;;12.17;100.00;102685.16;5031779;28;50029;-66
2022/11/26 13:22:07;;;;;;;;;22.75;19.00;;;;;11.46;100.00;102555.63;5030149;28;50027;-78
2022/11/26 13:24:41;;;;;;;;;24.25;21.50;;;;;12.40;100.00;102721.31;5032962;28;49768;-66
2022/11/26 13:27:28;;;;;;;;;21.50;18.75;;;;;12.39;100.00;102703.72;5031718;28;49627;-68
2022/11/26 13:30:09;;;;;;;;;22.00;17.50;;;;;12.35;100.00;102707.03;5027202;28;49816;-66
2022/11/26 13:32:46;;;;;;;;;16.00;11.50;;;;;12.27;100.00;102703.19;5031377;28;50574;-76
2022/11/26 13:35:26;;;;;;;;;26.00;20.50;;;;;12.26;100.00;102707.56;5031844;28;49723;-76
2022/11/26 13:38:26;;;;;;;;;24.75;18.50;;;;;12.32;100.00;102710.44;5031314;28;49923;-70
2022/11/26 13:41:18;;;;;;;;;24.75;23.75;;;;;12.37;100.00;102708.03;5031644;28;50003;-80
2022/11/26 13:44:10;;;;;;;;;22.25;15.25;;;;;12.39;100.00;102708.97;5013670;28;49929;-66
2022/11/26 13:46:45;;;;;;;;;18.00;17.00;;;;;12.41;100.00;102699.41;5031800;28;49838;-68
2022/11/26 13:49:16;;;;;;;;;25.75;20.75;;;;;12.43;100.00;102686.31;5031244;28;50416;-69
2022/11/26 13:51:44;;;;;;;;;28.25;24.50;;;;;12.39;100.00;102681.75;5031954;28;49713;-67
2022/11/26 13:54:19;;;;;;;;;21.50;18.75;;;;;12.38;100.00;102690.47;5031264;28;51066;-67
2022/11/26 13:56:46;;;;;;;;;20.00;18.50;;;;;12.41;100.00;102685.34;5013411;28;49993;-67
2022/11/26 13:59:22;;;;;;;;;18.75;17.50;;;;;12.21;100.00;102635.34;5030515;28;50040;-63
2022/11/26 14:01:48;;;;;;;;;20.25;19.75;;;;;11.79;100.00;102597.44;5029641;28;50153;-78
2022/11/26 14:04:34;;;;;;;;;27.75;25.00;;;;;12.48;100.00;102675.16;5031631;28;50880;-65
2022/11/26 14:07:03;;;;;;;;;22.25;20.25;;;;;12.31;100.00;102639.28;5030966;28;49727;-67
2022/11/26 14:09:40;;;;;;;;;24.25;21.50;;;;;12.47;100.00;102662.81;5031529;28;50227;-65
2022/11/26 14:12:06;;;;;;;;;23.00;20.25;;;;;12.29;100.00;102633.94;5029528;28;49876;-67
2022/11/26 14:14:32;;;;;;;;;19.75;17.25;;;;;11.45;100.00;102477.56;5030489;28;49941;-71
2022/11/26 14:17:01;;;;;;;;;17.00;16.25;;;;;12.38;100.00;102672.03;5031129;28;49857;-69
2022/11/26 14:19:38;;;;;;;;;21.50;19.00;;;;;12.35;100.00;102677.16;5013470;28;49666;-65
2022/11/26 14:22:06;;;;;;;;;28.25;26.50;;;;;12.23;100.00;102688.97;5032097;28;49730;-65
2022/11/26 14:24:57;;;;;;;;;28.75;23.50;;;;;12.15;100.00;102663.13;5027368;28;50343;-64
2022/11/26 14:27:29;;;;;;;;;18.25;17.25;;;;;12.17;100.00;102670.28;5031466;28;49856;-64
2022/11/26 14:30:22;;;;;;;;;26.75;21.25;;;;;12.21;100.00;102663.41;5028116;28;49617;-65
2022/11/26 14:33:09;;;;;;;;;16.00;15.75;;;;;11.45;100.00;102537.16;5028181;28;49878;-64
2022/11/26 14:35:37;;;;;;;;;21.75;17.75;;;;;12.21;100.00;102668.66;5031262;28;50105;-63
2022/11/26 14:38:21;;;;;;;;;17.75;16.50;;;;;11.95;100.00;102649.06;5031192;28;49718;-65
2022/11/26 14:40:55;;;;;;;;;14.75;14.75;;;;;12.09;100.00;102670.75;5028352;28;49737;-64
2022/11/26 14:43:21;;;;;;;;;19.00;18.00;;;;;11.73;100.00;102605.06;5031576;28;50123;-65
2022/11/26 14:46:02;;;;;;;;;19.00;18.00;;;;;12.03;100.00;102661.72;5030457;28;49832;-64
2022/11/26 14:48:29;;;;;;;;;20.75;16.50;;;;;11.78;100.00;102628.97;5031022;28;49928;-70
2022/11/26 14:50:58;;;;;;;;;18.25;17.75;;;;;11.99;100.00;102667.72;5025951;28;49815;-67
2022/11/26 14:53:28;;;;;;;;;7.50;5.75;;;;;10.92;100.00;102498.78;5029089;28;49944;-66
2022/11/26 14:55:54;;;;;;;;;19.00;17.25;;;;;11.91;100.00;102653.28;5029145;28;50075;-73
2022/11/26 14:58:29;;;;;;;;;20.00;18.00;;;;;11.94;100.00;102674.47;5029491;28;50041;-73
2022/11/26 15:01:16;;;;;;;;;18.75;16.00;;;;;11.91;100.00;102666.47;5034047;28;49990;-69
2022/11/26 15:03:53;;;;;;;;;21.00;17.00;;;;;11.81;100.00;102656.34;5037279;28;50026;-68
2022/11/26 15:06:24;;;;;;;;;20.25;20.25;;;;;11.63;100.00;102619.53;5049166;28;49681;-68
2022/11/26 15:08:49;;;;;;;;;22.00;18.75;;;;;11.32;100.00;102576.88;5034078;28;49575;-69
2022/11/26 15:11:17;;;;;;;;;18.75;16.25;;;;;11.76;100.00;102652.53;5030749;28;50229;-68
2022/11/26 15:13:45;;;;;;;;;22.25;20.00;;;;;11.75;100.00;102651.66;5031033;28;49746;-68
2022/11/26 15:16:28;;;;;;;;;26.00;24.25;;;;;11.62;100.00;102651.03;5030352;28;50683;-68
2022/11/26 15:18:55;;;;;;;;;19.50;17.00;;;;;11.55;100.00;102627.88;5030819;28;49912;-67
2022/11/26 15:21:23;;;;;;;;;19.75;17.25;;;;;11.63;100.00;102645.84;5030732;28;49829;-68
2022/11/26 15:23:50;;;;;;;;;18.75;17.50;;;;;11.58;100.00;102651.69;5012724;28;49989;-67
2022/11/26 15:26:18;;;;;;;;;12.00;10.25;;;;;11.39;100.00;102619.31;5030346;28;50467;-68
2022/11/26 15:28:43;;;;;;;;;19.75;16.25;;;;;11.45;100.00;102637.97;5030536;28;49646;-68
2022/11/26 15:31:09;;;;;;;;;23.00;21.25;;;;;11.47;100.00;102648.56;5012483;28;49843;-74
2022/11/26 15:33:37;;;;;;;;;19.75;19.00;;;;;10.17;100.00;102442.63;5030786;28;49795;-68
2022/11/26 15:36:04;;;;;;;;;12.25;8.75;;;;;11.35;100.00;102625.22;5030610;28;50615;-68
2022/11/26 15:38:32;;;;;;;;;21.25;17.50;;;;;11.21;100.00;102597.41;5009958;28;49793;-76
2022/11/26 15:41:04;;;;;;;;;24.25;19.50;;;;;11.47;100.00;102659.97;5028299;28;49876;-75
2022/11/26 15:43:44;;;;;;;;;16.50;16.50;;;;;11.47;100.00;102652.09;5030556;28;49944;-72
2022/11/26 15:46:09;;;;;;;;;21.75;19.25;;;;;11.47;100.00;102645.94;5011922;28;53271;-74
2022/11/26 15:48:57;;;;;;;;;24.50;22.00;;;;;11.33;100.00;102642.66;5030002;28;49889;-70
2022/11/26 15:51:36;;;;;;;;;21.25;19.25;;;;;11.42;100.00;102644.84;5026781;28;49675;-72
2022/11/26 15:54:03;;;;;;;;;23.00;19.75;;;;;11.44;100.00;102649.31;5028757;28;50362;-69
2022/11/26 15:56:32;;;;;;;;;28.00;21.75;;;;;11.31;100.00;102635.53;5030545;28;51305;-72
2022/11/26 15:59:03;;;;;;;;;18.50;17.00;;;;;11.12;100.00;102608.38;5028774;28;49852;-71
2022/11/26 16:01:32;;;;;;;;;19.25;19.25;;;;;11.30;100.00;102644.25;5027725;28;49847;-71
2022/11/26 16:04:05;;;;;;;;;21.50;17.00;;;;;11.16;100.00;102612.94;5028489;28;49848;-73
2022/11/26 16:06:39;;;;;;;;;22.75;21.25;;;;;11.12;100.00;102602.22;5032170;28;51183;-80
2022/11/26 16:09:22;;;;;;;;;21.00;19.50;;;;;11.31;100.00;102632.91;5034325;28;49742;-70
2022/11/26 16:12:00;;;;;;;;;28.75;20.50;;;;;11.11;100.00;102603.94;5023957;28;49275;-69
2022/11/26 16:14:31;;;;;;;;;24.25;24.00;;;;;11.25;100.00;102641.41;5043053;28;49706;-67
2022/11/26 16:16:59;;;;;;;;;22.25;19.75;;;;;11.15;100.00;102631.25;5034099;28;50550;-66
2022/11/26 16:19:28;;;;;;;;;27.00;25.00;;;;;10.97;100.00;102620.75;5035782;28;49670;-67
2022/11/26 16:21:54;;;;;;;;;26.00;22.50;;;;;11.07;100.00;102632.63;5023472;28;50034;-67
2022/11/26 16:24:32;;;;;;;;;23.75;20.25;;;;;11.12;100.00;102639.00;5040295;28;49983;-66
2022/11/26 16:27:22;;;;;;;;;28.50;23.75;;;;;11.11;100.00;102642.47;5030886;28;50994;-67
2022/11/26 16:29:48;;;;;;;;;22.75;21.50;;;;;10.87;100.00;102598.38;5046284;28;49823;-67
2022/11/26 16:32:16;;;;;;;;;28.50;21.75;;;;;11.12;100.00;102645.16;5048484;28;49610;-68
2022/11/26 16:34:42;;;;;;;;;23.00;21.75;;;;;10.98;100.00;102617.31;5028613;28;49669;-68
2022/11/26 16:37:23;;;;;;;;;23.00;20.00;;;;;11.16;100.00;102641.84;5019347;28;51799;-67
2022/11/26 16:39:51;;;;;;;;;31.25;25.75;;;;;11.16;100.00;102651.47;5035109;28;49781;-68
2022/11/26 16:42:19;;;;;;;;;25.75;23.50;;;;;10.99;100.00;102626.97;5053738;28;49217;-67
2022/11/26 16:44:44;;;;;;;;;21.75;19.00;;;;;11.02;100.00;102642.94;5045520;28;49561;-68
2022/11/26 16:47:50;;;;;;;;;22.50;18.25;;;;;10.56;100.00;102563.56;5047662;28;50119;-68
2022/11/26 16:50:17;;;;;;;;;20.25;18.00;;;;;11.17;100.00;102666.41;5047831;28;49485;-69
2022/11/26 16:52:43;;;;;;;;;30.50;25.75;;;;;10.80;100.00;102596.28;5047448;28;49705;-68
2022/11/26 16:55:19;;;;;;;;;22.50;20.75;;;;;11.16;100.00;102659.34;5049317;28;49488;-68
2022/11/26 16:57:48;;;;;;;;;23.25;21.50;;;;;11.10;100.00;102653.81;5048540;28;50613;-68
2022/11/26 17:00:19;;;;;;;;;23.75;22.25;;;;;11.09;100.00;102658.13;5049511;28;49319;-69
2022/11/26 17:02:45;;;;;;;;;21.00;21.00;;;;;10.82;100.00;102599.00;5048847;28;50062;-69
2022/11/26 17:05:11;;;;;;;;;25.75;21.00;;;;;11.09;100.00;102646.72;5050024;28;49560;-68
2022/11/26 17:07:41;;;;;;;;;28.25;23.00;;;;;11.16;100.00;102647.09;5045127;28;49753;-68
2022/11/26 17:10:12;;;;;;;;;23.75;22.25;;;;;11.15;100.00;102647.03;5035585;28;50027;-67
2022/11/26 17:12:38;;;;;;;;;23.25;23.25;;;;;11.17;100.00;102637.50;5049172;28;49512;-70
2022/11/26 17:15:03;;;;;;;;;24.00;22.50;;;;;11.18;100.00;102636.66;5043515;28;50139;-67
2022/11/26 17:17:29;;;;;;;;;26.25;23.00;;;;;11.02;100.00;102614.00;5034236;28;50185;-70
2022/11/26 17:19:55;;;;;;;;;22.50;20.75;;;;;11.14;100.00;102625.09;5035420;28;49821;-74
2022/11/26 17:22:23;;;;;;;;;24.25;22.50;;;;;10.99;100.00;102590.19;5012917;28;49803;-73
2022/11/26 17:24:48;;;;;;;;;27.00;24.75;;;;;11.04;100.00;102598.31;5042385;28;49588;-68
2022/11/26 17:27:16;;;;;;;;;22.25;20.75;;;;;11.06;100.00;102586.13;5039647;28;50132;-70
2022/11/26 17:29:43;;;;;;;;;23.25;22.25;;;;;11.14;100.00;102590.94;5030747;28;49851;-67
2022/11/26 17:32:16;;;;;;;;;23.50;21.00;;;;;11.07;100.00;102580.06;5031461;28;49807;-68
2022/11/26 17:34:43;;;;;;;;;19.00;17.75;;;;;11.13;100.00;102578.63;5030549;28;49868;-69
2022/11/26 17:37:17;;;;;;;;;22.00;20.75;;;;;11.11;100.00;102569.78;5032857;28;49992;-68
2022/11/26 17:39:42;;;;;;;;;27.00;22.00;;;;;10.85;100.00;102529.09;5031412;28;49657;-68
2022/11/26 17:42:08;;;;;;;;;27.00;21.25;;;;;11.03;100.00;102560.63;5031028;28;49861;-67
2022/11/26 17:44:33;;;;;;;;;23.75;21.75;;;;;11.08;100.00;102568.72;5031346;28;54527;-67
2022/11/26 17:47:03;;;;;;;;;28.50;23.25;;;;;10.83;100.00;102509.75;5030248;28;49812;-69
2022/11/26 17:49:28;;;;;;;;;21.00;21.00;;;;;11.11;100.00;102559.25;5013995;28;50009;-68
2022/11/26 17:51:54;;;;;;;;;26.00;21.50;;;;;10.92;100.00;102539.94;5013253;28;49862;-70
2022/11/26 17:54:19;;;;;;;;;23.50;23.50;;;;;11.01;100.00;102556.13;5031249;28;49805;-68
2022/11/26 17:56:45;;;;;;;;;26.50;26.00;;;;;10.76;100.00;102505.03;5031630;28;50952;-74
2022/11/26 17:59:10;;;;;;;;;23.25;18.00;;;;;11.04;100.00;102572.94;5037465;28;49753;-69
2022/11/26 18:01:35;;;;;;;;;22.75;21.25;;;;;11.03;100.00;102572.88;5030315;28;57097;-69
2022/11/26 18:04:01;;;;;;;;;22.50;21.00;;;;;10.52;100.00;102481.13;5029164;28;49560;-69
2022/11/26 18:06:44;;;;;;;;;19.50;18.00;;;;;10.62;100.00;102494.69;5028874;28;49879;-68
2022/11/26 18:09:09;;;;;;;;;27.00;22.50;;;;;10.90;100.00;102524.06;5030150;28;49587;-68
2022/11/26 18:11:53;;;;;;;;;21.25;21.25;;;;;10.88;100.00;102524.00;5031993;28;49954;-67
2022/11/26 18:14:18;;;;;;;;;18.50;17.25;;;;;10.99;100.00;102540.25;5029713;28;49814;-69
2022/11/26 18:16:44;;;;;;;;;21.50;17.75;;;;;10.96;100.00;102533.97;5032396;28;49840;-67
2022/11/26 18:19:13;;;;;;;;;24.50;21.00;;;;;10.59;100.00;102479.69;5031127;28;49983;-67
2022/11/26 18:21:38;;;;;;;;;23.00;20.50;;;;;10.80;100.00;102517.47;5034119;28;50134;-67
2022/11/26 18:24:05;;;;;;;;;23.00;19.75;;;;;10.75;100.00;102510.22;5029362;28;49838;-65
2022/11/26 18:26:31;;;;;;;;;26.75;25.00;;;;;10.83;100.00;102519.38;5030022;28;49832;-67
2022/11/26 18:28:57;;;;;;;;;26.25;25.25;;;;;10.92;100.00;102534.66;5025867;28;50792;-71
2022/11/26 18:31:23;;;;;;;;;29.25;24.50;;;;;10.63;100.00;102488.63;5030234;28;49852;-69
2022/11/26 18:33:49;;;;;;;;;21.50;21.25;;;;;10.85;100.00;102521.22;5031288;28;49665;-68
2022/11/26 18:36:14;;;;;;;;;33.50;26.25;;;;;10.83;100.00;102515.00;5025675;28;50393;-69
2022/11/26 18:38:39;;;;;;;;;23.00;20.75;;;;;10.88;100.00;102529.25;5030937;28;50126;-69
2022/11/26 18:41:05;;;;;;;;;25.25;23.50;;;;;10.83;100.00;102511.47;5036116;28;60834;-66
2022/11/26 18:43:33;;;;;;;;;26.75;21.75;;;;;11.00;100.00;102542.09;5031148;28;49816;-68
2022/11/26 18:46:09;;;;;;;;;21.25;18.00;;;;;10.58;100.00;102468.28;5036229;28;49772;-68
2022/11/26 18:48:36;;;;;;;;;22.00;20.50;;;;;10.87;100.00;102537.97;5031518;28;49828;-68
2022/11/26 18:51:03;;;;;;;;;17.25;16.00;;;;;10.75;100.00;102513.75;5031098;28;49766;-68
2022/11/26 18:53:29;;;;;;;;;23.00;19.75;;;;;10.91;100.00;102538.13;5037002;28;49837;-65
2022/11/26 18:55:55;;;;;;;;;16.75;16.75;;;;;10.83;100.00;102514.09;5030042;28;50449;-67
2022/11/26 18:58:21;;;;;;;;;18.75;16.25;;;;;10.78;100.00;102516.50;5029904;28;50426;-68
2022/11/26 19:00:48;;;;;;;;;23.25;20.00;;;;;10.81;100.00;102516.66;5030105;28;49698;-70
2022/11/26 19:03:14;;;;;;;;;22.25;19.00;;;;;10.60;100.00;102468.34;5019407;28;49958;-70
2022/11/26 19:05:43;;;;;;;;;16.75;15.75;;;;;10.76;100.00;102502.41;5027571;28;51766;-69
2022/11/26 19:08:09;;;;;;;;;22.50;22.00;;;;;10.78;100.00;102508.63;5023673;28;49641;-69
2022/11/26 19:10:37;;;;;;;;;20.00;15.50;;;;;10.65;100.00;102500.09;5030883;28;49762;-68
2022/11/26 19:13:02;;;;;;;;;25.75;21.00;;;;;10.61;100.00;102499.03;5027866;28;50255;-68
2022/11/26 19:15:28;;;;;;;;;18.25;13.75;;;;;10.51;100.00;102494.16;5027552;28;50921;-68
2022/11/26 19:17:53;;;;;;;;;18.25;16.75;;;;;10.04;100.00;102406.13;5030618;28;49660;-67
2022/11/26 19:20:18;;;;;;;;;17.25;17.25;;;;;10.59;100.00;102491.06;5026030;28;49765;-68
2022/11/26 19:22:45;;;;;;;;;18.50;15.00;;;;;10.06;100.00;102417.56;5021300;28;49964;-68
2022/11/26 19:25:10;;;;;;;;;17.50;16.00;;;;;10.23;100.00;102461.34;5027825;28;50761;-69